Time;durP1;ratioP1;P1;durP2;ratioP2;P2;SDS_P1;SDS_P2;PMS_P1;PMS_P2;Temp;Humidity;BMP_temperature;BMP_pressure;BME280_temperature;BME280_humidity;BME280_pressure;Samples;Min_cycle;Max_cycle;Signal;HPM_P1;HPM_P2
2022/01/31 00:00:12;;;;;;;26.97;5.60;;;4.80;99.90;;;;;;5074719;28;20468;-58
2022/01/31 00:02:41;;;;;;;24.87;4.23;;;4.70;99.90;;;;;;5074238;28;20234;-59
2022/01/31 00:05:10;;;;;;;25.23;5.67;;;4.60;99.90;;;;;;5074620;28;20326;-59
2022/01/31 00:07:40;;;;;;;25.63;4.33;;;4.60;99.90;;;;;;5073977;28;20500;-59
2022/01/31 00:10:11;;;;;;;24.47;4.70;;;4.70;99.90;;;;;;5075116;28;20465;-59
2022/01/31 00:12:49;;;;;;;31.73;5.30;;;4.70;99.90;;;;;;5074255;28;20318;-59
2022/01/31 00:15:19;;;;;;;23.00;4.40;;;4.60;99.90;;;;;;5074642;28;20853;-58
2022/01/31 00:17:47;;;;;;;27.93;4.87;;;4.60;99.90;;;;;;5074111;28;20316;-59
2022/01/31 00:20:16;;;;;;;22.90;4.33;;;4.60;99.90;;;;;;5074485;28;20484;-58
2022/01/31 00:22:52;;;;;;;27.83;4.73;;;4.70;99.90;;;;;;5073205;28;20979;-58
2022/01/31 00:25:20;;;;;;;31.40;5.20;;;4.60;99.90;;;;;;5065790;28;20470;-58
2022/01/31 00:27:48;;;;;;;34.03;5.63;;;4.50;99.90;;;;;;5073570;28;20477;-58
2022/01/31 00:30:18;;;;;;;25.70;4.27;;;4.50;99.90;;;;;;5073983;28;20329;-59
2022/01/31 00:32:47;;;;;;;26.17;4.90;;;4.50;99.90;;;;;;5073868;28;20480;-59
2022/01/31 00:35:16;;;;;;;23.37;4.87;;;4.50;99.90;;;;;;5073994;28;20484;-59
2022/01/31 00:37:44;;;;;;;23.73;4.17;;;4.50;99.90;;;;;;5073472;28;20473;-59
2022/01/31 00:40:15;;;;;;;21.67;4.60;;;4.50;99.90;;;;;;5073927;28;20480;-58
2022/01/31 00:42:43;;;;;;;24.70;4.50;;;4.40;99.90;;;;;;5073551;28;20500;-59
2022/01/31 00:45:13;;;;;;;27.17;5.47;;;4.40;99.90;;;;;;5073588;28;20239;-58
2022/01/31 00:47:46;;;;;;;22.27;4.93;;;4.50;99.90;;;;;;5072943;28;20473;-59
2022/01/31 00:50:18;;;;;;;33.47;6.03;;;4.40;99.90;;;;;;5072318;28;20329;-59
2022/01/31 00:52:47;;;;;;;25.43;5.43;;;4.40;99.90;;;;;;5073129;28;20598;-58
2022/01/31 00:55:17;;;;;;;27.20;5.10;;;4.40;99.90;;;;;;5067710;28;20495;-59
2022/01/31 00:57:46;;;;;;;23.27;5.20;;;4.40;99.90;;;;;;5073308;28;20318;-59
2022/01/31 01:00:16;;;;;;;24.27;5.13;;;4.40;99.90;;;;;;5073513;28;20883;-59
2022/01/31 01:02:45;;;;;;;24.57;4.50;;;4.50;99.90;;;;;;5071678;28;20242;-58
2022/01/31 01:05:16;;;;;;;25.17;4.47;;;4.50;99.90;;;;;;5072186;28;20507;-58
2022/01/31 01:07:46;;;;;;;24.60;4.20;;;4.40;99.90;;;;;;5072411;28;21000;-58
2022/01/31 01:10:17;;;;;;;21.47;4.57;;;4.40;99.90;;;;;;5070838;28;20475;-59
2022/01/31 01:12:45;;;;;;;28.17;4.93;;;4.40;99.90;;;;;;5071986;28;20480;-58
2022/01/31 01:15:15;;;;;;;23.13;4.70;;;4.40;99.90;;;;;;5073394;28;20526;-59
2022/01/31 01:17:45;;;;;;;26.00;5.00;;;4.40;99.90;;;;;;5073296;28;20484;-59
2022/01/31 01:20:16;;;;;;;24.33;4.57;;;4.40;99.90;;;;;;5073305;28;20484;-58
2022/01/31 01:22:45;;;;;;;27.70;5.70;;;4.30;99.90;;;;;;5072250;28;20466;-58
2022/01/31 01:25:14;;;;;;;25.13;5.23;;;4.30;99.90;;;;;;5063209;28;20516;-58
2022/01/31 01:27:47;;;;;;;28.30;5.70;;;4.30;99.90;;;;;;5071093;28;20961;-58
2022/01/31 01:30:16;;;;;;;24.23;5.53;;;4.20;99.90;;;;;;5071581;28;20481;-58
2022/01/31 01:33:00;;;;;;;29.60;5.80;;;4.20;99.90;;;;;;5072827;28;20480;-58
2022/01/31 01:35:33;;;;;;;24.50;4.80;;;4.20;99.90;;;;;;5071179;28;20479;-59
2022/01/31 01:38:06;;;;;;;24.93;4.83;;;4.20;99.90;;;;;;5071170;28;20476;-59
2022/01/31 01:40:38;;;;;;;24.27;4.73;;;4.20;99.90;;;;;;5071066;28;20481;-58
2022/01/31 01:43:10;;;;;;;26.20;6.03;;;4.20;99.90;;;;;;5071500;28;20237;-59
2022/01/31 01:45:40;;;;;;;24.03;5.00;;;4.20;99.90;;;;;;5072347;28;20480;-59
2022/01/31 01:48:11;;;;;;;24.70;4.87;;;4.20;99.90;;;;;;5063682;28;20480;-59
2022/01/31 01:50:40;;;;;;;15.27;4.53;;;4.20;99.90;;;;;;5072453;28;20837;-59
2022/01/31 01:53:12;;;;;;;23.70;4.70;;;4.20;99.90;;;;;;5070781;28;20472;-59
2022/01/31 01:55:41;;;;;;;21.43;4.77;;;4.20;99.90;;;;;;5070641;28;21018;-59
2022/01/31 01:58:15;;;;;;;22.93;4.40;;;4.20;99.90;;;;;;5071057;28;20959;-59
2022/01/31 02:00:58;;;;;;;24.40;4.97;;;4.20;99.90;;;;;;5070715;28;20835;-58
2022/01/31 02:03:47;;;;;;;26.50;4.53;;;4.20;99.90;;;;;;5067792;28;20554;-59
2022/01/31 02:06:16;;;;;;;30.60;4.90;;;4.20;99.90;;;;;;5070625;28;20552;-58
2022/01/31 02:08:46;;;;;;;22.40;4.53;;;4.10;99.90;;;;;;5072094;28;20854;-59
2022/01/31 02:11:23;;;;;;;28.03;4.83;;;4.10;99.90;;;;;;5072391;28;20897;-59
2022/01/31 02:13:55;;;;;;;25.63;4.93;;;4.10;99.90;;;;;;5070802;28;20564;-58
2022/01/31 02:16:32;;;;;;;22.63;4.27;;;4.10;99.90;;;;;;5072122;28;20481;-59
2022/01/31 02:19:22;;;;;;;21.90;4.70;;;4.20;99.90;;;;;;5049967;28;20267;-58
2022/01/31 02:22:11;;;;;;;25.60;4.60;;;4.10;99.90;;;;;;5055607;28;20832;-59
2022/01/31 02:24:58;;;;;;;24.97;4.67;;;4.10;99.90;;;;;;5068052;28;20487;-58
2022/01/31 02:27:45;;;;;;;25.17;4.20;;;4.00;99.90;;;;;;5071106;28;20543;-59
2022/01/31 02:30:16;;;;;;;24.33;4.70;;;4.00;99.90;;;;;;5070449;28;20476;-59
2022/01/31 02:32:46;;;;;;;24.03;4.57;;;4.00;99.90;;;;;;5070143;28;20467;-59
2022/01/31 02:35:15;;;;;;;23.80;4.30;;;4.00;99.90;;;;;;5070465;28;20971;-59
2022/01/31 02:37:44;;;;;;;29.30;5.07;;;3.90;99.90;;;;;;5070109;28;20993;-59
2022/01/31 02:40:25;;;;;;;38.93;6.07;;;3.80;99.90;;;;;;5070378;28;20480;-58
2022/01/31 02:42:54;;;;;;;25.67;5.10;;;3.90;99.90;;;;;;5070202;28;20480;-58
2022/01/31 02:45:26;;;;;;;24.00;4.73;;;3.80;99.90;;;;;;5070099;28;20481;-59
2022/01/31 02:47:57;;;;;;;21.27;4.40;;;3.90;99.90;;;;;;5069760;28;20561;-58
2022/01/31 02:50:28;;;;;;;49.83;17.67;;;3.90;99.90;;;;;;5059386;28;20565;-60
2022/01/31 02:53:11;;;;;;;65.77;21.63;;;3.90;99.90;;;;;;5062231;28;20504;-60
2022/01/31 02:55:42;;;;;;;47.67;16.27;;;3.90;99.90;;;;;;5069810;28;20477;-61
2022/01/31 02:58:11;;;;;;;45.10;14.13;;;3.90;99.90;;;;;;5069848;28;20469;-62
2022/01/31 03:00:39;;;;;;;31.13;8.87;;;3.90;99.90;;;;;;5069936;28;20545;-62
2022/01/31 03:03:20;;;;;;;28.87;7.23;;;3.90;99.90;;;;;;5069616;28;20476;-61
2022/01/31 03:05:50;;;;;;;21.13;6.37;;;3.90;99.90;;;;;;5069464;28;20469;-61
2022/01/31 03:08:20;;;;;;;25.77;5.93;;;3.90;99.90;;;;;;5071000;28;20505;-61
2022/01/31 03:10:49;;;;;;;24.23;5.73;;;3.80;99.90;;;;;;5069706;28;20512;-61
2022/01/31 03:13:26;;;;;;;22.00;4.60;;;3.80;99.90;;;;;;5069457;28;20499;-61
2022/01/31 03:15:56;;;;;;;23.87;4.57;;;3.80;99.90;;;;;;5069734;28;20542;-61
2022/01/31 03:18:43;;;;;;;18.33;4.20;;;3.80;99.90;;;;;;5070164;28;20480;-61
2022/01/31 03:21:12;;;;;;;18.63;4.67;;;3.80;99.90;;;;;;5062345;28;20473;-61
2022/01/31 03:23:44;;;;;;;23.63;4.93;;;3.80;99.90;;;;;;5068964;28;20523;-61
2022/01/31 03:26:12;;;;;;;21.13;4.70;;;3.80;99.90;;;;;;5069361;28;20470;-61
2022/01/31 03:28:41;;;;;;;25.00;4.83;;;3.80;99.90;;;;;;5069198;28;20495;-61
2022/01/31 03:31:09;;;;;;;16.90;4.47;;;3.80;99.90;;;;;;5070578;28;20461;-61
2022/01/31 03:33:38;;;;;;;17.00;4.40;;;3.80;99.90;;;;;;5068953;28;20568;-61
2022/01/31 03:36:06;;;;;;;23.40;4.60;;;3.80;99.90;;;;;;5070794;28;20464;-61
2022/01/31 03:38:40;;;;;;;21.80;5.47;;;3.80;99.90;;;;;;5069179;28;20487;-61
2022/01/31 03:41:10;;;;;;;21.50;4.97;;;3.80;99.90;;;;;;5070759;28;20471;-61
2022/01/31 03:43:40;;;;;;;22.33;5.53;;;3.80;99.90;;;;;;5068806;28;20471;-62
2022/01/31 03:46:09;;;;;;;19.63;5.47;;;3.70;99.90;;;;;;5069591;28;20775;-60
2022/01/31 03:48:38;;;;;;;19.17;4.97;;;3.70;99.90;;;;;;5068643;28;20473;-61
2022/01/31 03:51:14;;;;;;;17.17;4.37;;;3.80;99.90;;;;;;5060363;28;20519;-61
2022/01/31 03:53:43;;;;;;;19.03;5.20;;;3.80;99.90;;;;;;5069105;28;20475;-61
2022/01/31 03:56:14;;;;;;;26.90;5.03;;;3.80;99.90;;;;;;5069465;28;20478;-61
2022/01/31 03:58:59;;;;;;;19.43;5.27;;;3.70;99.90;;;;;;5070657;28;20465;-61
2022/01/31 04:01:28;;;;;;;21.63;4.80;;;3.70;99.90;;;;;;5068952;28;21018;-61
2022/01/31 04:03:56;;;;;;;17.80;4.87;;;3.70;99.90;;;;;;5070423;28;20832;-61
2022/01/31 04:06:24;;;;;;;23.47;5.30;;;3.70;99.90;;;;;;5070023;28;20488;-61
2022/01/31 04:08:52;;;;;;;19.03;5.03;;;3.70;99.90;;;;;;5070485;28;20487;-60
2022/01/31 04:11:22;;;;;;;21.40;5.47;;;3.70;99.90;;;;;;5070801;28;20484;-61
2022/01/31 04:13:50;;;;;;;19.87;4.70;;;3.70;99.90;;;;;;5070476;28;20469;-60
2022/01/31 04:16:18;;;;;;;18.73;5.03;;;3.80;99.90;;;;;;5070605;28;20478;-61
2022/01/31 04:18:46;;;;;;;24.17;4.40;;;3.80;99.90;;;;;;5065832;28;20999;-60
2022/01/31 04:21:14;;;;;;;23.60;5.07;;;3.70;99.90;;;;;;5064532;28;21040;-61
2022/01/31 04:23:42;;;;;;;20.87;4.47;;;3.70;99.90;;;;;;5065386;28;20500;-61
2022/01/31 04:26:13;;;;;;;20.37;4.87;;;3.70;99.90;;;;;;5064942;28;21035;-61
2022/01/31 04:28:45;;;;;;;22.63;4.70;;;3.80;99.90;;;;;;5064894;28;20466;-61
2022/01/31 04:31:34;;;;;;;18.63;4.67;;;3.70;99.90;;;;;;5064948;28;21030;-61
2022/01/31 04:34:02;;;;;;;21.23;4.80;;;3.70;99.90;;;;;;5065114;28;20481;-61
2022/01/31 04:36:30;;;;;;;19.97;4.90;;;3.70;99.90;;;;;;5065092;28;20996;-61
2022/01/31 04:38:59;;;;;;;24.67;5.50;;;3.70;99.90;;;;;;5065392;28;20499;-60
2022/01/31 04:41:27;;;;;;;24.50;5.27;;;3.70;99.90;;;;;;5065680;28;20605;-61
2022/01/31 04:43:58;;;;;;;20.10;6.13;;;3.70;99.90;;;;;;5067775;28;21093;-62
2022/01/31 04:46:26;;;;;;;19.40;6.13;;;3.60;99.90;;;;;;5068518;28;20492;-60
2022/01/31 04:48:54;;;;;;;21.67;5.43;;;3.60;99.90;;;;;;5069310;28;20494;-60
2022/01/31 04:51:22;;;;;;;17.23;5.37;;;3.70;99.90;;;;;;5069453;28;20488;-61
2022/01/31 04:53:51;;;;;;;20.07;5.33;;;3.70;99.90;;;;;;5069425;28;20979;-60
2022/01/31 04:56:20;;;;;;;27.07;6.63;;;3.70;99.90;;;;;;5068258;28;20500;-61
2022/01/31 04:58:48;;;;;;;23.17;6.40;;;3.70;99.90;;;;;;5068652;28;20989;-61
2022/01/31 05:01:18;;;;;;;24.67;6.50;;;3.60;99.90;;;;;;5068949;28;20882;-61
2022/01/31 05:03:47;;;;;;;26.30;6.67;;;3.60;99.90;;;;;;5068621;28;20475;-60
2022/01/31 05:06:18;;;;;;;27.43;6.87;;;3.50;99.90;;;;;;5067358;28;20476;-60
2022/01/31 05:08:47;;;;;;;24.10;6.93;;;3.50;99.90;;;;;;5068321;28;20475;-61
2022/01/31 05:11:16;;;;;;;22.37;7.07;;;3.50;99.90;;;;;;5068946;28;20473;-61
2022/01/31 05:13:46;;;;;;;24.87;7.20;;;3.50;99.90;;;;;;5068399;28;20549;-60
2022/01/31 05:16:15;;;;;;;21.53;6.53;;;3.50;99.90;;;;;;5067251;28;20515;-61
2022/01/31 05:18:44;;;;;;;28.50;7.47;;;3.50;99.90;;;;;;5067782;28;20469;-61
2022/01/31 05:21:13;;;;;;;23.00;6.17;;;3.60;99.90;;;;;;5067450;28;20543;-61
2022/01/31 05:23:41;;;;;;;24.87;6.63;;;3.50;99.90;;;;;;5068028;28;20492;-60
2022/01/31 05:26:09;;;;;;;24.23;6.83;;;3.50;99.90;;;;;;5067202;28;20487;-61
2022/01/31 05:28:37;;;;;;;21.03;6.93;;;3.50;99.90;;;;;;5068108;28;20477;-61
2022/01/31 05:31:07;;;;;;;24.43;7.13;;;3.50;99.90;;;;;;5068505;28;20571;-60
2022/01/31 05:33:36;;;;;;;21.20;6.10;;;3.40;99.90;;;;;;5068218;28;20500;-62
2022/01/31 05:36:06;;;;;;;24.73;6.73;;;3.40;99.90;;;;;;5067130;28;21039;-61
2022/01/31 05:38:36;;;;;;;20.00;6.27;;;3.30;99.90;;;;;;5068330;28;20480;-61
2022/01/31 05:41:07;;;;;;;21.70;7.80;;;3.30;99.90;;;;;;5068613;28;20477;-61
2022/01/31 05:43:36;;;;;;;22.70;7.53;;;3.30;99.90;;;;;;5068438;28;20953;-61
2022/01/31 05:46:04;;;;;;;26.80;8.57;;;3.30;99.90;;;;;;5066311;28;20526;-60
2022/01/31 05:48:33;;;;;;;26.63;7.20;;;3.30;99.90;;;;;;5067606;28;20538;-60
2022/01/31 05:51:02;;;;;;;23.27;8.23;;;3.20;99.90;;;;;;5068169;28;20466;-61
2022/01/31 05:53:32;;;;;;;22.60;8.13;;;3.20;99.90;;;;;;5067499;28;20886;-61
2022/01/31 05:56:00;;;;;;;25.97;7.67;;;3.20;99.90;;;;;;5066028;28;20893;-61
2022/01/31 05:58:28;;;;;;;25.17;7.60;;;3.10;99.90;;;;;;5067060;28;20604;-60
2022/01/31 06:00:56;;;;;;;16.53;6.93;;;3.10;99.90;;;;;;5067826;28;20488;-61
2022/01/31 06:03:25;;;;;;;22.27;6.67;;;3.00;99.90;;;;;;5067589;28;20483;-61
2022/01/31 06:05:53;;;;;;;22.07;8.57;;;3.10;99.90;;;;;;5066109;28;21062;-62
2022/01/31 06:08:21;;;;;;;19.50;8.73;;;3.00;99.90;;;;;;5067624;28;20911;-61
2022/01/31 06:10:51;;;;;;;22.27;8.43;;;3.10;99.90;;;;;;5067015;28;20508;-61
2022/01/31 06:13:23;;;;;;;22.07;8.30;;;3.00;99.90;;;;;;5067440;28;20515;-60
2022/01/31 06:15:51;;;;;;;17.67;8.43;;;3.10;99.90;;;;;;5066053;28;20469;-61
2022/01/31 06:18:20;;;;;;;21.73;7.70;;;3.10;99.90;;;;;;5066480;28;20479;-61
2022/01/31 06:20:48;;;;;;;19.53;8.73;;;3.10;99.90;;;;;;5066309;28;20526;-61
2022/01/31 06:23:16;;;;;;;25.27;8.33;;;3.10;99.90;;;;;;5067250;28;20882;-60
2022/01/31 06:25:45;;;;;;;18.33;8.63;;;3.00;99.90;;;;;;5065995;28;20475;-61
2022/01/31 06:28:14;;;;;;;20.60;8.77;;;3.10;99.90;;;;;;5066945;28;20557;-61
2022/01/31 06:30:43;;;;;;;18.87;8.30;;;3.10;99.90;;;;;;5065462;28;20884;-61
2022/01/31 06:33:15;;;;;;;17.70;7.90;;;3.10;99.90;;;;;;5067075;28;20483;-61
2022/01/31 06:35:44;;;;;;;18.90;7.13;;;3.10;99.90;;;;;;5065377;28;20528;-60
2022/01/31 06:38:12;;;;;;;18.53;8.67;;;3.10;99.90;;;;;;5066825;28;20470;-61
2022/01/31 06:40:41;;;;;;;17.87;7.40;;;3.10;99.90;;;;;;5066689;28;20555;-61
2022/01/31 06:43:10;;;;;;;19.47;8.13;;;3.10;99.90;;;;;;5066874;28;20545;-61
2022/01/31 06:45:39;;;;;;;19.63;7.70;;;3.10;99.90;;;;;;5065443;28;21381;-60
2022/01/31 06:48:08;;;;;;;17.50;8.53;;;3.00;99.90;;;;;;5064065;28;20793;-61
2022/01/31 06:50:36;;;;;;;18.50;8.57;;;3.00;99.90;;;;;;5064292;28;20473;-60
2022/01/31 06:53:05;;;;;;;15.43;7.93;;;3.00;99.90;;;;;;5064917;28;20476;-61
2022/01/31 06:55:34;;;;;;;18.23;7.97;;;3.00;99.90;;;;;;5069294;28;20463;-60
2022/01/31 06:58:03;;;;;;;15.97;8.03;;;3.00;99.90;;;;;;5069918;28;20465;-61
2022/01/31 07:00:32;;;;;;;11.97;7.60;;;3.10;99.90;;;;;;5069073;28;20477;-61
2022/01/31 07:03:05;;;;;;;17.20;8.13;;;3.10;99.90;;;;;;5069706;28;20495;-61
2022/01/31 07:05:33;;;;;;;16.63;7.83;;;3.10;99.90;;;;;;5069124;28;20478;-61
2022/01/31 07:08:01;;;;;;;15.97;7.73;;;3.10;99.90;;;;;;5069148;28;20465;-60
2022/01/31 07:10:29;;;;;;;14.53;7.97;;;3.10;99.90;;;;;;5068953;28;20806;-61
2022/01/31 07:12:58;;;;;;;14.23;8.07;;;3.00;99.90;;;;;;5069854;28;20472;-61
2022/01/31 07:15:27;;;;;;;11.83;7.27;;;3.10;99.90;;;;;;5068492;28;20481;-61
2022/01/31 07:17:55;;;;;;;12.90;7.13;;;3.10;99.90;;;;;;5070071;28;20462;-60
2022/01/31 07:20:36;;;;;;;17.17;8.17;;;3.10;99.90;;;;;;5070634;28;20820;-61
2022/01/31 07:23:15;;;;;;;12.17;7.20;;;3.10;99.90;;;;;;5068545;28;20501;-60
2022/01/31 07:25:48;;;;;;;14.57;6.87;;;3.10;99.90;;;;;;5068885;28;20473;-61
2022/01/31 07:28:17;;;;;;;10.13;7.13;;;3.10;99.90;;;;;;5070114;28;20544;-60
2022/01/31 07:30:52;;;;;;;13.53;6.93;;;3.00;99.90;;;;;;5070531;28;20468;-60
2022/01/31 07:33:27;;;;;;;12.03;6.70;;;3.00;99.90;;;;;;5070423;28;20546;-60
2022/01/31 07:35:57;;;;;;;12.07;7.63;;;3.10;99.90;;;;;;5070088;28;20480;-60
2022/01/31 07:38:50;;;;;;;9.43;7.33;;;3.00;99.90;;;;;;5068468;28;20461;-60
2022/01/31 07:41:18;;;;;;;11.63;7.50;;;3.00;99.90;;;;;;5070809;28;20824;-60
2022/01/31 07:43:51;;;;;;;13.17;6.97;;;3.00;99.90;;;;;;5070711;28;20543;-60
2022/01/31 07:46:19;;;;;;;11.10;6.80;;;3.00;99.90;;;;;;5070295;28;20510;-59
2022/01/31 07:48:53;;;;;;;12.07;7.40;;;3.00;99.90;;;;;;5070575;28;20538;-60
2022/01/31 07:51:26;;;;;;;13.53;7.67;;;3.00;99.90;;;;;;5070367;28;20533;-61
2022/01/31 07:53:54;;;;;;;10.57;7.10;;;3.10;99.90;;;;;;5070036;28;20477;-60
2022/01/31 07:56:24;;;;;;;11.43;7.40;;;3.00;99.90;;;;;;5060309;28;20551;-60
2022/01/31 07:58:59;;;;;;;9.40;7.00;;;3.00;99.90;;;;;;5069857;28;20491;-60
2022/01/31 08:01:27;;;;;;;9.57;7.17;;;3.00;99.90;;;;;;5069915;28;21085;-60
2022/01/31 08:03:55;;;;;;;7.93;6.40;;;2.90;99.90;;;;;;5070667;28;20477;-60
2022/01/31 08:06:24;;;;;;;10.23;7.43;;;3.00;99.90;;;;;;5070240;28;20981;-61
2022/01/31 08:08:54;;;;;;;9.67;6.70;;;3.00;99.90;;;;;;5070263;28;20476;-60
2022/01/31 08:11:25;;;;;;;11.27;6.53;;;3.10;99.90;;;;;;5070001;28;20878;-60
2022/01/31 08:13:57;;;;;;;7.63;6.40;;;3.10;99.90;;;;;;5070476;28;20467;-60
2022/01/31 08:16:26;;;;;;;9.90;6.80;;;3.10;99.90;;;;;;5070155;28;20548;-60
2022/01/31 08:18:54;;;;;;;8.13;6.50;;;3.10;99.90;;;;;;5073375;28;20467;-60
2022/01/31 08:21:23;;;;;;;10.00;6.83;;;3.20;99.90;;;;;;5073821;28;20465;-60
2022/01/31 08:23:54;;;;;;;13.10;8.80;;;3.20;99.90;;;;;;5065723;28;20870;-60
2022/01/31 08:26:22;;;;;;;10.67;7.53;;;3.20;99.90;;;;;;5073700;28;20478;-60
2022/01/31 08:28:56;;;;;;;10.60;7.53;;;3.10;99.90;;;;;;5073883;28;20471;-60
2022/01/31 08:31:29;;;;;;;8.00;6.53;;;3.20;99.90;;;;;;5073946;28;20476;-60
2022/01/31 08:34:07;;;;;;;9.00;7.33;;;3.20;99.90;;;;;;5073173;28;20473;-60
2022/01/31 08:36:36;;;;;;;9.60;7.00;;;3.20;99.90;;;;;;5071783;28;20997;-61
2022/01/31 08:39:11;;;;;;;7.73;6.43;;;3.20;99.90;;;;;;5068258;28;20823;-60
2022/01/31 08:41:42;;;;;;;9.83;6.70;;;3.20;99.90;;;;;;5059830;28;20541;-61
2022/01/31 08:44:12;;;;;;;9.63;5.80;;;3.20;99.90;;;;;;5073217;28;20471;-61
2022/01/31 08:46:41;;;;;;;7.80;6.10;;;3.20;99.90;;;;;;5071061;28;20480;-61
2022/01/31 08:49:10;;;;;;;8.10;6.63;;;3.30;99.90;;;;;;5073508;28;20879;-61
2022/01/31 08:51:39;;;;;;;8.27;5.93;;;3.30;99.90;;;;;;5066639;28;20525;-60
2022/01/31 08:54:09;;;;;;;8.27;6.27;;;3.30;99.90;;;;;;5064073;28;20478;-60
2022/01/31 08:56:43;;;;;;;7.67;6.13;;;3.30;99.90;;;;;;5070493;28;20476;-61
2022/01/31 08:59:15;;;;;;;8.40;6.23;;;3.40;99.90;;;;;;5072206;28;20531;-60
2022/01/31 09:01:51;;;;;;;8.60;5.87;;;3.40;99.90;;;;;;5056071;28;20481;-60
2022/01/31 09:04:32;;;;;;;6.40;5.80;;;3.40;99.90;;;;;;5071773;28;20487;-60
2022/01/31 09:07:02;;;;;;;8.60;6.17;;;3.40;99.90;;;;;;5073078;28;20961;-60
2022/01/31 09:09:31;;;;;;;6.40;5.67;;;3.40;99.90;;;;;;5072986;28;20466;-61
2022/01/31 09:12:06;;;;;;;8.23;6.23;;;3.40;99.90;;;;;;5071266;28;20476;-60
2022/01/31 09:14:36;;;;;;;7.60;6.13;;;3.50;99.90;;;;;;5068059;28;20472;-60
2022/01/31 09:17:05;;;;;;;9.03;6.40;;;3.40;99.90;;;;;;5070127;28;20451;-60
2022/01/31 09:19:33;;;;;;;8.90;5.90;;;3.50;99.90;;;;;;5071536;28;20482;-61
2022/01/31 09:22:01;;;;;;;8.20;6.13;;;3.40;99.90;;;;;;5069700;28;20464;-61
2022/01/31 09:24:37;;;;;;;6.77;5.47;;;3.40;99.90;;;;;;5071570;28;20549;-60
2022/01/31 09:27:05;;;;;;;6.83;6.13;;;3.30;99.90;;;;;;5071458;28;20473;-60
2022/01/31 09:29:33;;;;;;;7.53;6.00;;;3.40;99.90;;;;;;5071306;28;20806;-61
2022/01/31 09:32:03;;;;;;;8.33;6.53;;;3.30;99.90;;;;;;5071665;28;20872;-61
2022/01/31 09:34:31;;;;;;;7.93;6.40;;;3.30;99.90;;;;;;5071357;28;20467;-60
2022/01/31 09:37:00;;;;;;;7.77;6.03;;;3.30;99.90;;;;;;5071754;28;20469;-60
2022/01/31 09:39:28;;;;;;;8.33;6.40;;;3.30;99.90;;;;;;5071325;28;20580;-61
2022/01/31 09:42:06;;;;;;;6.77;6.00;;;3.30;99.90;;;;;;5071020;28;20515;-60
2022/01/31 09:44:50;;;;;;;8.07;6.63;;;3.30;99.90;;;;;;5070924;28;20472;-59
2022/01/31 09:47:22;;;;;;;7.47;6.30;;;3.30;99.90;;;;;;5069906;28;20554;-60
2022/01/31 09:49:51;;;;;;;7.40;6.27;;;3.40;99.90;;;;;;5070522;28;21006;-60
2022/01/31 09:52:19;;;;;;;7.23;5.80;;;3.40;99.90;;;;;;5069275;28;20987;-60
2022/01/31 09:54:49;;;;;;;8.30;6.60;;;3.30;99.90;;;;;;5069794;28;20470;-60
2022/01/31 09:57:18;;;;;;;7.30;6.60;;;3.30;99.90;;;;;;5071184;28;20831;-60
2022/01/31 09:59:47;;;;;;;6.97;6.13;;;3.40;99.90;;;;;;5070007;28;20478;-61
2022/01/31 10:02:15;;;;;;;9.23;7.73;;;3.40;99.90;;;;;;5070701;28;20461;-61
2022/01/31 10:04:47;;;;;;;8.57;7.10;;;3.50;99.90;;;;;;5070510;28;20473;-60
2022/01/31 10:07:17;;;;;;;7.80;6.70;;;3.50;99.90;;;;;;5070794;28;20564;-60
2022/01/31 10:09:48;;;;;;;8.97;7.50;;;3.50;99.90;;;;;;5069515;28;21105;-60
2022/01/31 10:12:28;;;;;;;8.30;7.40;;;3.50;99.90;;;;;;5070757;28;21015;-61
2022/01/31 10:17:46;;;;;;;8.17;7.37;;;3.50;99.90;;;;;;5051298;28;20561;-60
2022/01/31 10:20:27;;;;;;;9.63;7.53;;;3.70;99.90;;;;;;5069799;28;20470;-61
2022/01/31 10:22:56;;;;;;;8.80;7.67;;;3.70;99.90;;;;;;5069848;28;20558;-61
2022/01/31 10:25:25;;;;;;;8.27;7.37;;;3.70;99.90;;;;;;5070234;28;20471;-61
2022/01/31 10:28:16;;;;;;;8.67;7.67;;;3.80;99.90;;;;;;5069959;28;20529;-61
2022/01/31 10:30:46;;;;;;;8.67;7.40;;;3.80;99.90;;;;;;5068294;28;20479;-61
2022/01/31 10:33:18;;;;;;;8.30;7.00;;;3.80;99.90;;;;;;5069964;28;20550;-61
2022/01/31 10:35:46;;;;;;;8.00;7.20;;;3.80;99.90;;;;;;5067200;28;20534;-61
2022/01/31 10:38:19;;;;;;;8.93;7.30;;;3.80;99.90;;;;;;5065244;28;20535;-61
2022/01/31 10:44:17;;;;;;;8.13;7.10;;;3.90;99.90;;;;;;5065768;28;20977;-61
2022/01/31 10:52:30;;;;;;;8.87;7.20;;;3.80;99.90;;;;;;5065738;28;20493;-60
2022/01/31 10:55:13;;;;;;;7.70;6.63;;;3.90;99.90;;;;;;5065370;28;21482;-61
2022/01/31 10:57:41;;;;;;;8.30;6.80;;;3.90;99.90;;;;;;5065434;28;20567;-61
2022/01/31 11:00:11;;;;;;;7.80;7.00;;;3.90;99.90;;;;;;5066398;28;20471;-61
2022/01/31 11:02:39;;;;;;;7.90;7.10;;;4.00;99.90;;;;;;5065496;28;20518;-62
2022/01/31 11:05:23;;;;;;;7.70;6.37;;;4.00;99.90;;;;;;5065096;28;20500;-60
2022/01/31 11:07:51;;;;;;;7.70;6.93;;;4.00;99.90;;;;;;5065772;28;21049;-60
2022/01/31 11:10:28;;;;;;;7.40;6.60;;;4.00;99.90;;;;;;5065872;28;20484;-61
2022/01/31 11:12:56;;;;;;;7.17;6.40;;;4.10;99.90;;;;;;5065766;28;21045;-60
2022/01/31 11:15:26;;;;;;;7.83;6.47;;;4.10;99.90;;;;;;5065230;28;20527;-60
2022/01/31 11:18:00;;;;;;;8.60;6.67;;;4.10;99.90;;;;;;5065964;28;20532;-60
2022/01/31 11:20:29;;;;;;;7.30;6.17;;;4.10;99.90;;;;;;5065605;28;20533;-60
2022/01/31 11:22:59;;;;;;;7.63;6.10;;;4.10;99.90;;;;;;5065741;28;22078;-60
2022/01/31 11:25:31;;;;;;;8.30;6.37;;;4.10;99.90;;;;;;5064727;28;21003;-60
2022/01/31 11:28:03;;;;;;;7.90;5.93;;;4.20;99.90;;;;;;5065735;28;20487;-60
2022/01/31 11:30:32;;;;;;;7.63;6.53;;;4.20;99.90;;;;;;5065742;28;20534;-62
2022/01/31 11:33:01;;;;;;;7.03;6.03;;;4.20;99.90;;;;;;5066013;28;20826;-61
2022/01/31 11:35:31;;;;;;;7.03;6.07;;;4.20;99.90;;;;;;5064461;28;20444;-61
2022/01/31 11:37:59;;;;;;;7.10;6.37;;;4.20;99.90;;;;;;5065788;28;20491;-61
2022/01/31 11:40:27;;;;;;;8.40;6.10;;;4.10;99.90;;;;;;5066253;28;20522;-60
2022/01/31 11:42:57;;;;;;;6.53;5.80;;;4.20;99.90;;;;;;5068559;28;20469;-60
2022/01/31 11:45:28;;;;;;;7.93;6.37;;;4.20;99.90;;;;;;5064618;28;20476;-61
2022/01/31 11:48:04;;;;;;;7.60;6.37;;;4.10;99.90;;;;;;5065403;28;20515;-60
2022/01/31 11:50:43;;;;;;;8.97;6.30;;;4.10;99.90;;;;;;5065766;28;20476;-61
2022/01/31 11:53:12;;;;;;;7.57;6.20;;;4.10;99.90;;;;;;5065177;28;21914;-61
2022/01/31 11:55:41;;;;;;;6.93;6.23;;;4.10;99.90;;;;;;5064123;28;20562;-60
2022/01/31 11:58:15;;;;;;;8.90;6.30;;;4.20;99.90;;;;;;5065284;28;20538;-61
2022/01/31 12:00:44;;;;;;;6.53;5.50;;;4.20;99.90;;;;;;5065281;28;20481;-61
2022/01/31 12:03:16;;;;;;;8.03;5.97;;;4.20;99.90;;;;;;5065338;28;20463;-61
2022/01/31 12:05:47;;;;;;;7.90;6.00;;;4.30;99.90;;;;;;5064228;28;20479;-60
2022/01/31 12:08:19;;;;;;;8.23;5.70;;;4.30;99.90;;;;;;5065256;28;20494;-59
2022/01/31 12:11:03;;;;;;;9.03;5.93;;;4.30;99.90;;;;;;5065383;28;20510;-61
2022/01/31 12:13:35;;;;;;;7.27;5.80;;;4.30;99.90;;;;;;5064814;28;20508;-61
2022/01/31 12:16:14;;;;;;;7.60;5.53;;;4.30;99.90;;;;;;5064415;28;20471;-61
2022/01/31 12:24:29;;;;;;;11.47;6.97;;;4.30;99.90;;;;;;5058866;28;21049;-60
2022/01/31 12:27:04;;;;;;;8.80;7.03;;;4.20;99.90;;;;;;5053235;28;20468;-61
2022/01/31 12:29:37;;;;;;;11.70;7.90;;;4.20;99.90;;;;;;5053688;28;20991;-61
2022/01/31 12:32:15;;;;;;;11.73;7.27;;;4.30;99.90;;;;;;5055860;28;20481;-61
2022/01/31 12:34:58;;;;;;;12.50;8.40;;;4.40;99.90;;;;;;5053258;28;20476;-61
2022/01/31 12:37:37;;;;;;;13.87;8.37;;;4.40;99.90;;;;;;5053649;28;20635;-61
2022/01/31 12:40:13;;;;;;;13.93;9.57;;;4.50;99.90;;;;;;5054602;28;20545;-61
2022/01/31 12:46:03;;;;;;;10.83;9.23;;;4.60;99.90;;;;;;5059576;28;20242;-61
2022/01/31 12:48:31;;;;;;;13.60;9.43;;;4.70;99.90;;;;;;5064048;28;20485;-60
2022/01/31 12:51:04;;;;;;;14.10;9.63;;;4.70;99.90;;;;;;5065079;28;20478;-61
2022/01/31 12:53:48;;;;;;;13.77;9.70;;;4.60;99.90;;;;;;5064577;28;20611;-61
2022/01/31 12:56:32;;;;;;;14.47;10.13;;;4.70;99.90;;;;;;5064023;28;20472;-61
2022/01/31 12:59:12;;;;;;;12.50;9.30;;;4.60;99.90;;;;;;5064267;28;20476;-61
2022/01/31 13:01:42;;;;;;;15.13;10.33;;;4.60;99.90;;;;;;5065115;28;20476;-61
2022/01/31 13:04:13;;;;;;;14.70;10.00;;;4.60;99.90;;;;;;5065833;28;20569;-61
2022/01/31 13:06:45;;;;;;;13.77;10.47;;;4.60;99.90;;;;;;5067015;28;20979;-60
2022/01/31 13:09:20;;;;;;;14.00;9.57;;;4.60;99.90;;;;;;5068537;28;20912;-61
2022/01/31 13:11:50;;;;;;;17.40;10.67;;;4.50;99.90;;;;;;5068429;28;20594;-61
2022/01/31 13:14:22;;;;;;;15.60;10.20;;;4.50;99.90;;;;;;5067867;28;20263;-61
2022/01/31 13:17:11;;;;;;;17.60;10.33;;;4.40;99.90;;;;;;5066099;28;20494;-60
2022/01/31 13:19:41;;;;;;;16.67;9.80;;;4.40;99.90;;;;;;5066984;28;20475;-60
2022/01/31 13:22:14;;;;;;;16.93;10.30;;;4.40;99.90;;;;;;5067906;28;20262;-61
2022/01/31 13:24:44;;;;;;;12.63;9.67;;;4.50;99.90;;;;;;5067621;28;20556;-61
2022/01/31 13:27:14;;;;;;;18.07;9.50;;;4.50;99.90;;;;;;5066302;28;20489;-60
2022/01/31 13:30:04;;;;;;;13.93;8.67;;;4.70;99.90;;;;;;5067871;28;20860;-61
2022/01/31 13:32:34;;;;;;;14.67;8.57;;;4.60;99.90;;;;;;5068054;28;20530;-60